Tiempo atmosférico en la estación meteorológica de Reinosa, Cantabria (875 m.)



Fecha
DESCASC
Temp. máxima en grados centígrados (hora)
DESCASC
Temp. mínima en grados centígrados (hora)
DESCASC
Temp. media en grados centígrados
DESCASC
Racha de viento máxima en m/sg (hora)
DESCASC
Velocidad máxima media en intervalos de 10 minutos(hora)
DESCASC
Precipitaciones diarias en mm
DESCASC
Precipitaciones de 00:00 a 06:00 en mm
DESCASC
Precipitaciones de 06:00 a 12:00 en mm
DESCASC
Precipitaciones de 12:00 a 18:00 en mm
DESCASC
Precipitaciones de 18:00 a 24:00 en mm
DESCASC
29-05-2019 19.2 (16:50) 6.4 (00:00) 12.8 9.17 (10:10) 5.28 (10:40) 0 0 0 0 0
25-06-2019 26.6 (15:20) 12.5 (00:00) 19.6 8.89 (13:40) 5.83 (18:00) 0.5 0 0.4 0.1 0
24-06-2019 25.1 (15:50) 10.2 (00:00) 17.7 8.33 (17:20) 5.28 (17:20) 0.5 0 0.4 0 0.1
23-06-2019 26 (14:30) 8.8 (00:00) 17.4 13.33 (14:00) 7.5 (14:20) 0 0 0 0 0
22-06-2019 26.3 (17:30) 4.5 (00:00) 15.4 9.72 (13:20) 4.72 (13:00) 0 0 0 0 0
20-06-2019 16.8 (15:10) 11.5 (00:00) 14.1 8.06 (16:10) 4.72 (16:30) 0.8 0 0 0 0.8
19-06-2019 21.4 (13:30) 12.4 (00:00) 16.9 11.67 (02:20) 6.39 (02:40) 0.1 0 0.1 0 0
18-06-2019 25.9 (16:50) 7.5 (00:00) 16.7 16.39 (14:40) 8.33 (20:20) 0 0 0 0 0
17-06-2019 27 (16:00) 8.3 (00:00) 17.7 13.06 (15:20) 5.56 (13:20) 0 0 0 0 0
16-06-2019 24.2 (15:30) 2.8 (00:00) 13.5 8.33 (18:30) 5.28 (18:30) 0 0 0 0 0
15-06-2019 18.2 (15:50) 8.3 (00:00) 13.3 8.89 (17:40) 4.44 (17:10) 0 0 0 0 0
14-06-2019 15.7 (15:20) 4.2 (00:00) 9.9 8.61 (16:20) 5 (17:50) 0 0 0 0 0
13-06-2019 17.9 (14:30) 7.4 (00:00) 12.6 9.44 (17:00) 6.39 (16:50) 0 0 0 0 0
12-06-2019 15.3 (16:00) -0.3 (00:00) 7.5 9.44 (15:40) 5 (17:30) 0 0 0 0 0
11-06-2019 11.4 (17:20) 4.9 (00:00) 8.1 13.89 (16:20) 9.17 (16:20) 0.1 0 0 0.1 0
10-06-2019 11.2 (13:30) 6.3 (00:00) 8.8 8.61 (21:30) 5 (21:20) 3.6 0 0 0.4 3.2
09-06-2019 12.4 (14:00) 8.2 (00:00) 10.3 8.61 (18:10) 5.28 (18:10) 3.9 0 0 0 3.9
08-06-2019 18.5 (15:40) 5.3 (00:00) 11.9 8.33 (16:10) 5.83 (19:10) 0 0 0 0 0
04-06-2019 21.4 (15:00) 7.8 (00:00) 14.6 10.83 (11:20) 5 (11:40) 2.9 0 0 0 2.9
03-06-2019 23.4 (15:50) 5.6 (00:00) 14.5 8.33 (16:10) 5 (18:10) 0 0 0 0 0
02-06-2019 28 (14:40) 6.6 (00:00) 17.3 8.06 (15:40) 5.83 (15:40) 0 0 0 0 0
01-06-2019 30.6 (16:30) 6.1 (00:00) 18.4 8.33 (13:30) 4.72 (13:20) 0 0 0 0 0
31-05-2019 28.1 (16:10) 5.3 (00:00) 16.7 7.5 (16:50) 4.17 (16:00) 0 0 0 0 0
30-05-2019 24.7 (16:40) 1.6 (00:00) 13.2 8.89 (17:40) 5.56 (18:10) 0 0 0 0 0
28-05-2019 14.5 (13:50) 7.1 (00:00) 10.8 13.89 (11:00) 9.17 (11:00) 0 0 0 0 0
07-06-2019 15.2 (13:30) 6.6 (00:00) 10.9 15.28 (05:10) 7.78 (05:10) 1.1 0.1 0 1 0
06-06-2019 18.4 (18:00) 4.3 (00:00) 11.3 26.11 (18:10) 10.56 (19:30) 9.2 0.5 0 0 8.7
21-06-2019 17.1 (15:20) 9.4 (00:00) 13.3 7.22 (15:10) 4.44 (14:50) 3.1 3 0.1 0 0
26-06-2019 33.2 (18:00) 14.1 (00:00) 23.7 11.67 (14:40) 6.11 (12:50) 4 4 0 0 0
05-06-2019 14.2 (12:50) 6.2 (00:00) 10.2 11.11 (13:40) 6.67 (13:50) 10.3 4.3 0.6 2.8 2.6

Gráficas

Temp. máximas Temp. mínimas Temp. medias Precipitaciones Rachas de viento máximas Velocidades máximas media en intervalos de 10 minutos

Datos horarios

Fecha y hora oficial Temperatura (ºC) Velocidad del viento (km/h) Dirección del viento Racha (km/h) Dirección de racha Precipitación (mm) Presión (hPa) Tendencia (hPa) Humedad (%)
2019-06-26 23:00:00 17.7 2 Este 15 Nordeste 0 919.5 2.8 85
2019-06-26 22:00:00 19.7 4 Nordeste 18 Este 0 918.4 2.6 83
2019-06-26 21:00:00 22.8 6 Nordeste 19 Nordeste 0 917.5 1.6 73
2019-06-26 20:00:00 26.4 4 Nordeste 19 Nordeste 0 916.7 0.6 59
2019-06-26 19:00:00 28.2 12 Nordeste 24 Nordeste 0 915.8 -0.6 49
2019-06-26 18:00:00 32.2 10 Sur 28 Sudoeste 0 915.9 -0.6 27
2019-06-26 17:00:00 31.7 14 Sur 28 Sudoeste 0 916.1 -0.8 28
2019-06-26 16:00:00 30.7 14 Sur 28 Sur 0 916.4 -0.8 30
2019-06-26 15:00:00 29.8 14 Sur 42 Sur 0 916.5 -0.6 31
2019-06-26 14:00:00 28.8 20 Sur 40 Sur 0 916.9 -0.2 33
2019-06-26 13:00:00 27.3 18 Sur 37 Sur 0 917.2 -- 37
2019-06-26 12:00:00 -- -- -- -- -- -- -- -- --
2019-06-26 11:00:00 -- -- -- -- -- -- -- -- --
2019-06-26 10:00:00 -- -- -- -- -- -- -- -- --
2019-06-26 09:00:00 -- -- -- -- -- -- -- -- --
2019-06-26 08:00:00 -- -- -- -- -- -- -- -- --
2019-06-26 07:00:00 -- -- -- -- -- -- -- -- --
2019-06-26 06:00:00 -- -- -- -- -- -- -- -- --
2019-06-26 05:00:00 -- -- -- -- -- -- -- -- --
2019-06-26 04:00:00 -- -- -- -- -- -- -- -- --
2019-06-26 03:00:00 15.5 4 Este 10 Noroeste 1.8 917.7 -0.9 93
2019-06-26 02:00:00 15.6 3 Norte 16 Oeste 0 917.9 -0.8 93
2019-06-26 01:00:00 15.2 4 Sudoeste 10 Sudoeste 0 918.5 0 93
2019-06-26 00:00:00 15.2 0 Calma 8 Este 0 918.6 0.4 93
2019-06-25 23:00:00 15.3 0 Calma 5 Nordeste 0 918.7 0.7 93
2019-06-25 22:00:00 15.4 3 Nordeste 14 Este 0 918.5 0.6 93
2019-06-25 21:00:00 16 10 Nordeste 15 Este 0 918.2 0.7 92
2019-06-25 20:00:00 17.1 5 Este 14 Este 0 918 0.5 88
2019-06-25 19:00:00 17.1 6 Sudoeste 27 Este 0 917.9 0.5 89
2019-06-25 18:00:00 17.3 21 Este 28 Este 0 917.5 0.2 86
2019-06-25 17:00:00 18.7 13 Este 22 Nordeste 0.1 917.5 0 86
2019-06-25 16:00:00 22.9 10 Nordeste 30 Sur 0 917.4 -0.4 59
2019-06-25 15:00:00 25.9 13 Sur 28 Sudeste 0 917.3 -0.7 40
2019-06-25 14:00:00 23.2 15 Este 32 Este 0 917.5 -0.1 49
2019-06-25 13:00:00 22.1 12 Nordeste 21 Este 0 917.8 -0.1 52
2019-06-25 12:00:00 22 5 Este 17 Este 0 918 0 52
2019-06-25 11:00:00 21 2 Nordeste 12 Nordeste 0 917.6 -0.6 57
2019-06-25 10:00:00 18.4 3 Norte 11 Noroeste 0 917.9 0.4 70
2019-06-25 09:00:00 16.5 3 Oeste 8 Sudoeste 0.2 918 0.8 78
2019-06-25 08:00:00 15 0 Calma 5 Oeste 0.2 918.2 1.1 87
2019-06-25 07:00:00 12.7 4 Noroeste 5 Noroeste 0 917.5 0.1 91
2019-06-25 06:00:00 13.6 2 Norte 5 Noroeste 0 917.2 -0.3 87
2019-06-25 05:00:00 14.3 0 Calma 6 Oeste 0 917.1 -0.2 82
2019-06-25 04:00:00 15 2 Oeste 17 Sudeste 0 917.4 0.2 75
2019-06-25 03:00:00 15.1 7 Sudeste 15 Sudeste 0 917.5 0 74
2019-06-25 02:00:00 15.5 4 Sudeste 17 Este 0 917.3 -0.3 74
2019-06-25 01:00:00 15.2 9 Este 17 Este 0 917.2 0.1 83
2019-06-25 00:00:00 14.9 8 Este 11 Este 0 917.5 0.4 88
2019-06-24 23:00:00 14.6 2 Este 6 Sudoeste 0 917.6 1.7 91
2019-06-24 22:00:00 14.6 4 Oeste 13 Este 0.1 917.1 1.4 90
2019-06-24 21:00:00 15 9 Este 14 Este 0 917.1 1.5 88
2019-06-24 20:00:00 15.9 11 Este 19 Nordeste 0 915.9 0.8 83
2019-06-24 19:00:00 17.9 8 Este 14 Este 0 915.7 1.1 78
2019-06-24 18:00:00 17.2 9 Este 30 Nordeste 0 915.6 1.3 82
2019-06-24 17:00:00 19.5 16 Este 25 Este 0 915.1 0.5 71
2019-06-24 16:00:00 24.7 9 Sur 23 Sur 0 914.6 -0.1 32
2019-06-24 15:00:00 24.3 8 Sur 21 Sudoeste 0 914.3 -0.4 34
2019-06-24 14:00:00 23.2 14 Sur 24 Sur 0 914.6 -0.1 42
2019-06-24 13:00:00 21.6 11 Este 20 Este 0 914.7 -0.6 58
2019-06-24 12:00:00 19.8 6 Nordeste 13 Nordeste 0 914.7 -0.5 65
2019-06-24 11:00:00 17.1 0 Calma 9 Noroeste 0 914.7 -0.1 70
2019-06-24 10:00:00 15.1 0 Calma 9 Sur 0.1 915.3 0.9 78
2019-06-24 09:00:00 14 3 Sur 8 Oeste 0.2 915.2 0.8 86
2019-06-24 08:00:00 13.2 4 Oeste 9 Nordeste 0 914.8 0.7 84
2019-06-24 07:00:00 12.7 5 Nordeste 11 Nordeste 0.1 914.4 -0.7 86
2019-06-24 06:00:00 12.3 4 Sudeste 12 Sudoeste 0 914.4 -0.3 85
2019-06-24 05:00:00 10.6 6 Sudoeste 10 Sudoeste 0 914.1 -1 92
2019-06-24 04:00:00 10.6 2 Norte 5 Noroeste 0 915.1 0.2 93
2019-06-24 03:00:00 10.4 3 Noroeste 5 Sudoeste 0 914.7 -0.2 93
2019-06-24 02:00:00 10.9 0 Calma 9 Este 0 915.1 0.3 91
2019-06-24 01:00:00 14 2 Este 9 Noroeste 0 914.9 0.6 76
2019-06-24 00:00:00 14.8 4 Oeste 10 Este 0 914.9 0.8 68
2019-06-23 23:00:00 17.8 8 Este 12 Este 0 914.8 0.6 61
2019-06-23 22:00:00 17.3 2 Nordeste 15 Este 0 914.3 0.2 74
2019-06-23 21:00:00 18.3 10 Nordeste 17 Este 0 914.1 -0.1 67
2019-06-23 20:00:00 21.2 10 Este 23 Oeste 0 914.2 -0.2 43
2019-06-23 19:00:00 24.2 4 Sudoeste 17 Sudeste 0 914.1 -0.3 27
2019-06-23 18:00:00 23.7 9 Sudeste 29 Sudoeste 0 914.2 -0.2 28
2019-06-23 17:00:00 23.9 5 Sudoeste 27 Sur 0 914.4 0.2 26
2019-06-23 16:00:00 23.5 12 Sudoeste 45 Sudoeste 0 914.4 0.1 29
2019-06-23 15:00:00 25.1 14 Sur 44 Sur 0 914.4 0.2 26
2019-06-23 14:00:00 25.2 20 Sudoeste 48 Sudoeste 0 914.2 0.6 26
2019-06-23 13:00:00 23.4 13 Sur 33 Sudeste 0 914.3 0.7 32
2019-06-23 12:00:00 22.9 11 Sur 31 Sur 0 914.2 0.5 33
2019-06-23 11:00:00 21.5 18 Sur 45 Sudeste 0 913.6 -0.2 35
2019-06-23 10:00:00 19.8 17 Sur 27 Sur 0 913.6 0.4 44
2019-06-23 09:00:00 16.8 9 Sur 20 Sudeste 0 913.7 0.6 58
2019-06-23 08:00:00 14.8 15 Sudeste 25 Sudeste 0 913.8 1.5 68
2019-06-23 07:00:00 9.5 3 Oeste 9 Oeste 0 913.2 0.7 88
2019-06-23 06:00:00 10.1 3 Oeste 8 Oeste 0 913.1 0.2 89
2019-06-23 05:00:00 10.6 0 Calma 8 Noroeste 0 912.3 -1.3 86
2019-06-23 04:00:00 11.2 4 Noroeste 8 Oeste 0 912.5 -1.2 85
2019-06-23 03:00:00 12.2 2 Oeste 6 Oeste 0 912.9 -1 83
2019-06-23 02:00:00 13.5 3 Oeste 6 Sudoeste 0 913.6 -0.2 77
2019-06-23 01:00:00 14.7 4 Sudoeste 9 Sudoeste 0 913.7 0.1 70
2019-06-23 00:00:00 15.1 2 Sudoeste 11 Oeste 0 913.9 0.3 76
2019-06-22 23:00:00 16.7 0 Calma 4 Oeste 0 913.8 0 73
2019-06-22 22:00:00 19.5 2 Este 12 Este 0 913.6 -0.4 57
2019-06-22 21:00:00 21.3 6 Este 14 Oeste 0 913.6 -0.4 41
2019-06-22 20:00:00 23.5 7 Sudoeste 23 Sudoeste 0 913.8 -0.6 27
2019-06-22 19:00:00 24.6 11 Sudoeste 33 Sudoeste 0 914 -0.8 25
2019-06-22 18:00:00 25.5 13 Sudoeste 25 Sudoeste 0 914 -1.4 24
2019-06-22 17:00:00 25.3 9 Sur 24 Sudoeste 0 914.4 -1.5 26
2019-06-22 16:00:00 24.6 6 Sudoeste 29 Oeste 0 914.8 -1.4 30
2019-06-22 15:00:00 23.1 13 Oeste 27 Sur 0 915.4 -1.3 32
2019-06-22 14:00:00 23.2 13 Sudoeste 35 Sur 0 915.9 -1.2 34
2019-06-22 13:00:00 22.1 17 Sur 28 Sur 0 916.2 -1.1 35
2019-06-22 12:00:00 20.6 14 Sur 26 Sur 0 916.7 -1.2 39
2019-06-22 11:00:00 20.1 8 Sur 19 Sur 0 917.1 -0.9 46
2019-06-22 10:00:00 14.8 3 Nordeste 14 Sudeste 0 917.3 -0.9 65
2019-06-22 09:00:00 9.7 0 Calma 3 Noroeste 0 917.9 -0.2 89
2019-06-22 08:00:00 8.2 0 Calma 6 Sudoeste 0 918 -0.5 94
2019-06-22 07:00:00 5.7 3 Sudoeste 8 Oeste 0 918.2 -1.1 93
2019-06-22 06:00:00 7.1 4 Sudoeste 11 Sudoeste 0 918.1 -1.4 94
2019-06-22 05:00:00 6.5 6 Sudoeste 9 Sudoeste 0 918.5 -1.5 93
2019-06-22 04:00:00 6.7 3 Sudoeste 9 Sudoeste 0 919.3 -1 94
2019-06-22 03:00:00 8.4 4 Sur 10 Sudoeste 0 919.5 -0.9 94
2019-06-22 02:00:00 9.4 6 Oeste 8 Oeste 0 920 -0.4 94
2019-06-22 01:00:00 9.7 0 Calma 5 Sur 0 920.3 -0.1 94
2019-06-22 00:00:00 9.4 0 Calma 11 Este 0 920.4 0.5 92
2019-06-21 23:00:00 11 6 Este 10 Este 0 920.4 1 90
2019-06-21 22:00:00 12.1 4 Este 17 Norte 0 920.4 1.1 84
2019-06-21 21:00:00 13.5 9 Nordeste 22 Nordeste 0 919.9 0.6 78
2019-06-21 20:00:00 14.6 9 Nordeste 19 Nordeste 0 919.4 -0.2 70
2019-06-21 19:00:00 15.5 8 Nordeste 18 Este 0 919.3 -0.5 66
2019-06-21 18:00:00 15.2 7 Nordeste 19 Nordeste 0 919.3 -0.7 64
2019-06-21 17:00:00 15.4 12 Nordeste 23 Norte 0 919.6 -0.4 62
2019-06-21 16:00:00 15.6 8 Nordeste 26 Este 0 919.8 -0.3 61
2019-06-21 15:00:00 16.3 14 Nordeste 26 Nordeste 0 920 -0.2 58
2019-06-21 14:00:00 16.2 10 Nordeste 24 Nordeste 0 920 0 62
2019-06-21 13:00:00 13.8 12 Nordeste 21 Este 0 920.1 0.4 73
2019-06-21 12:00:00 12.9 11 Este 19 Nordeste 0.1 920.2 1.1 79
2019-06-21 11:00:00 12.2 8 Nordeste 19 Norte 0 920 1.1 82
2019-06-21 10:00:00 11.3 6 Nordeste 18 Nordeste 0 919.7 1.6 88
2019-06-21 09:00:00 10.5 8 Nordeste 19 Nordeste 0 919.1 1.3 91
2019-06-21 08:00:00 10.6 8 Norte 19 Nordeste 0 918.9 1.3 92
2019-06-21 07:00:00 10.6 4 Este 13 Nordeste 0 918.1 0.3 92
2019-06-21 06:00:00 10.6 6 Nordeste 15 Nordeste 0 917.8 -0.2 92
2019-06-21 05:00:00 11.2 5 Noroeste 20 Norte 0 917.6 -0.8 92
2019-06-21 04:00:00 11.1 8 Noroeste 14 Noroeste 0 917.8 -1.1 94
2019-06-21 03:00:00 10.6 4 Oeste 5 Oeste 0 918 -0.6 94
2019-06-21 02:00:00 10.8 3 Este 9 Este 1.6 918.4 -0.2 93
2019-06-21 01:00:00 11.5 3 Este 5 Sudeste 1.4 918.9 1 92
2019-06-21 00:00:00 11.7 2 Oeste 9 Este 0.5 918.6 1 92
2019-06-20 23:00:00 11.5 3 Oeste 14 Noroeste 0.3 918.6 1.1 91
2019-06-20 22:00:00 11.8 10 Noroeste 18 Noroeste 0 917.9 1.1 88
2019-06-20 21:00:00 12.3 6 Norte 19 Nordeste 0 917.6 0.4 89
2019-06-20 20:00:00 12.1 9 Nordeste 27 Nordeste 0 917.5 0.6 91
2019-06-20 19:00:00 13.2 13 Nordeste 23 Nordeste 0 916.8 -0.2 86
2019-06-20 18:00:00 13.6 10 Norte 28 Nordeste 0 917.2 -0.1 82
2019-06-20 17:00:00 14.7 12 Norte 29 Nordeste 0 916.9 -0.5 82
2019-06-20 16:00:00 15.1 13 Nordeste 27 Norte 0 917 -0.4 75
2019-06-20 15:00:00 16.4 13 Nordeste 25 Nordeste 0 917.3 0 68
2019-06-20 14:00:00 16.1 12 Nordeste 22 Norte 0 917.4 0.2 71
2019-06-20 13:00:00 16.3 10 Nordeste 21 Nordeste 0 917.4 0.1 70
2019-06-20 12:00:00 15.6 10 Nordeste 21 Nordeste 0 917.3 -0.1 73
2019-06-20 11:00:00 14.3 9 Nordeste 15 Nordeste 0 917.2 -0.2 82
2019-06-20 10:00:00 13 6 Nordeste 12 Nordeste 0 917.3 0 88
2019-06-20 09:00:00 12.6 5 Nordeste 11 Nordeste 0 917.4 0.3 90
2019-06-20 08:00:00 12.1 5 Nordeste 10 Nordeste 0 917.4 0.2 93
2019-06-20 07:00:00 11.8 3 Nordeste 8 Nordeste 0 917.3 0 94
2019-06-20 06:00:00 11.8 3 Nordeste 8 Nordeste 0 917.1 -0.4 94
2019-06-20 05:00:00 11.8 4 Nordeste 10 Nordeste 0 917.2 -0.4 94
2019-06-20 04:00:00 11.9 4 Este 11 Este 0 917.3 -0.4 94
2019-06-20 03:00:00 11.9 7 Nordeste 17 Este 0 917.5 -0.2 94
2019-06-20 02:00:00 11.9 11 Este 17 Nordeste 0 917.6 0.2 94
2019-06-20 01:00:00 12.1 8 Nordeste 14 Nordeste 0 917.7 0.8 94
2019-06-20 00:00:00 12.6 6 Nordeste 12 Este 0 917.7 0.8 92
2019-06-19 23:00:00 12.8 4 Nordeste 16 Este 0 917.4 1.2 91
2019-06-19 22:00:00 13.1 7 Nordeste 15 Este 0 916.9 1.1 90
2019-06-19 21:00:00 13.7 9 Norte 18 Norte 0 916.9 1.6 86
2019-06-19 20:00:00 13.7 9 Nordeste 20 Nordeste 0 916.2 1.2 87
2019-06-19 19:00:00 14.6 10 Nordeste 27 Nordeste 0 915.8 0.7 83
2019-06-19 18:00:00 16.9 15 Nordeste 27 Este 0 915.3 0.3 75
2019-06-19 17:00:00 18.2 17 Este 31 Este 0 915 0.1 65
2019-06-19 16:00:00 20.4 5 Sudeste 24 Sudoeste 0 915.1 0.3 58
2019-06-19 15:00:00 20.6 9 Sur 32 Sur 0 915 0.3 46
2019-06-19 14:00:00 21.2 18 Sudoeste 33 Sudoeste 0 914.9 0.7 46
2019-06-19 13:00:00 20 15 Sudoeste 31 Sudoeste 0 914.8 0.7 53
2019-06-19 12:00:00 18 19 Sudoeste 32 Sudoeste 0 914.7 0.7 59
2019-06-19 11:00:00 16.9 18 Sudoeste 33 Sudoeste 0 914.2 0.5 67
2019-06-19 10:00:00 17.1 17 Sudoeste 31 Sudoeste 0 914.1 0.6 71
2019-06-19 09:00:00 15 9 Sur 23 Sur 0.1 914 0.7 87
2019-06-19 08:00:00 15.6 13 Sur 28 Sur 0 913.7 0.7 76
2019-06-19 07:00:00 14.8 15 Sur 28 Sur 0 913.5 0.7 78
2019-06-19 06:00:00 14.8 16 Sur 26 Sur 0 913.3 0.5 77
2019-06-19 05:00:00 14.6 14 Sur 25 Sudoeste 0 913 -0.4 78
2019-06-19 04:00:00 16 11 Sudoeste 37 Sudoeste 0 912.8 -0.5 64
2019-06-19 03:00:00 17.1 21 Sudoeste 42 Sudoeste 0 912.8 -1.1 59
2019-06-19 02:00:00 17.4 22 Sudoeste 36 Sudoeste 0 913.4 -0.3 61
2019-06-19 01:00:00 16.9 18 Sudoeste 34 Sudoeste 0 913.3 0.2 59
2019-06-19 00:00:00 17.7 15 Sudoeste 36 Sudoeste 0 913.9 1.2 52
2019-06-18 23:00:00 18.4 18 Sudoeste 35 Sudoeste 0 913.7 1.4 47
2019-06-18 22:00:00 19.6 19 Sudoeste 37 Sudoeste 0 913.1 1.2 41
2019-06-18 21:00:00 21.4 27 Sudoeste 50 Sudoeste 0 912.7 1.1 35
2019-06-18 20:00:00 22.5 15 Sudoeste 45 Sudoeste 0 912.3 0.8 35
2019-06-18 19:00:00 23.8 18 Sudoeste 46 Sudoeste 0 911.9 0.5 30
2019-06-18 18:00:00 24.3 26 Sudoeste 56 Sudoeste 0 911.6 0 26
2019-06-18 17:00:00 25.7 21 Sudoeste 55 Sur 0 911.5 -0.6 20
2019-06-18 16:00:00 24.9 19 Sudoeste 55 Sudoeste 0 911.4 -1 19
2019-06-18 15:00:00 24.5 25 Sudoeste 59 Sudoeste 0 911.6 -0.8 17
2019-06-18 14:00:00 24.3 13 Sur 58 Sur 0 912.1 -0.1 20
2019-06-18 13:00:00 22.8 27 Sur 58 Sur 0 912.4 -0.3 21
2019-06-18 12:00:00 22.9 17 Sur 40 Sudeste 0 912.4 -0.6 25
2019-06-18 11:00:00 21.9 10 Sur 36 Sur 0 912.2 -0.9 30
2019-06-18 10:00:00 20.4 18 Sur 33 Sur 0 912.7 -0.2 33
2019-06-18 09:00:00 16.3 0 Calma 6 Este 0 913 0.1 52
2019-06-18 08:00:00 9.4 4 Noroeste 8 Oeste 0 913.1 0.3 84
2019-06-18 07:00:00 8.2 0 Calma 9 Oeste 0 912.9 -0.3 78
2019-06-18 06:00:00 9.1 4 Oeste 9 Noroeste 0 912.9 -1.3 78
2019-06-18 05:00:00 9.9 0 Calma 6 Noroeste 0 912.8 -1.9 77
2019-06-18 04:00:00 12.2 5 Nordeste 10 Nordeste 0 913.2 -2.4 72
2019-06-18 03:00:00 12.3 5 Norte 8 Norte 0 914.2 -1 87
2019-06-18 02:00:00 13.7 3 Norte 14 Este 0 914.7 -0.8 87
2019-06-18 01:00:00 13.8 5 Noroeste 15 Nordeste 0 915.6 0.9 92
2019-06-18 00:00:00 14.6 4 Nordeste 19 Este 0 915.2 0.4 91
2019-06-17 23:00:00 14.5 4 Nordeste 9 Nordeste 0 915.5 1.7 91
2019-06-17 22:00:00 15.1 5 Este 12 Norte 0 914.7 0.3 89
2019-06-17 21:00:00 15.7 4 Este 21 Este 0 914.8 0.1 85
2019-06-17 20:00:00 18.6 9 Nordeste 15 Este 0 913.8 -1.2 68
2019-06-17 19:00:00 24.2 6 Sudoeste 20 Sudoeste 0 914.4 -0.6 24
2019-06-17 18:00:00 24.7 8 Sudoeste 31 Sudoeste 0 914.7 -1 24
2019-06-17 17:00:00 25.2 17 Sudoeste 34 Sudoeste 0 915 -0.8 23
2019-06-17 16:00:00 26.9 16 Sur 47 Sudoeste 0 915 -1.6 23
2019-06-17 15:00:00 26.1 11 Sur 31 Sudoeste 0 915.7 -1.1 24
2019-06-17 14:00:00 25.3 11 Sur 36 Sudoeste 0 915.8 -1.2 26
2019-06-17 13:00:00 24.1 13 Sur 32 Sur 0 916.6 -0.9 30
2019-06-17 12:00:00 22.6 14 Sur 26 Sur 0 916.8 -0.8 37
2019-06-17 11:00:00 20.8 7 Este 14 Sudeste 0 917 -0.5 56
2019-06-17 10:00:00 17.6 4 Este 8 Este 0 917.5 0 65
2019-06-17 09:00:00 13.9 0 Calma 5 Oeste 0 917.6 -0.1 82
2019-06-17 08:00:00 10.3 0 Calma 4 Sudoeste 0 917.5 -0.4 91
2019-06-17 07:00:00 8.4 0 Calma 9 Oeste 0 917.5 -0.7 92
2019-06-17 06:00:00 9.4 4 Sudoeste 9 Sudoeste 0 917.7 -0.9 93
2019-06-17 05:00:00 9.2 4 Sudoeste 10 Sudoeste 0 917.9 -1 94
2019-06-17 04:00:00 8.9 3 Sur 7 Sudoeste 0 918.2 -0.9 94
2019-06-17 03:00:00 9.9 2 Oeste 5 Oeste 0 918.6 -0.9 94
2019-06-17 02:00:00 10.5 3 Oeste 5 Oeste 0 918.9 -0.6 94
2019-06-17 01:00:00 10.1 3 Noroeste 4 Noroeste 0 919.1 0.1 94
2019-06-17 00:00:00 11.1 0 Calma 4 Noroeste 0 919.5 0.7 93
2019-06-16 23:00:00 13.1 0 Calma 6 Este 0 919.5 1 91
2019-06-16 22:00:00 14.2 4 Este 13 Nordeste 0 919 1.5 89
2019-06-16 21:00:00 15.8 8 Nordeste 16 Nordeste 0 918.8 1.5 81
2019-06-16 20:00:00 17.3 9 Nordeste 26 Nordeste 0 918.5 0.8 75
2019-06-16 19:00:00 19.7 15 Nordeste 30 Nordeste 0 917.5 -0.6 66
2019-06-16 18:00:00 21.3 16 Nordeste 30 Nordeste 0 917.3 -1.1 56
2019-06-16 17:00:00 23.2 12 Nordeste 22 Este 0 917.7 -1.2 41
2019-06-16 16:00:00 23.2 10 Este 22 Sudeste 0 918.1 -1.2 35
2019-06-16 15:00:00 23.3 11 Sur 22 Sur 0 918.4 -1.3 30
2019-06-16 14:00:00 21.9 10 Sur 24 Sur 0 918.9 -1.3 31
2019-06-16 13:00:00 20.9 14 Sur 23 Sur 0 919.3 -1.1 35
2019-06-16 12:00:00 19 14 Sur 24 Sur 0 919.7 -0.7 43
2019-06-16 11:00:00 16.8 8 Este 15 Este 0 920.2 -0.3 52
2019-06-16 10:00:00 13.6 0 Calma 9 Noroeste 0 920.4 -0.1 69
2019-06-16 09:00:00 9.5 4 Noroeste 6 Noroeste 0 920.4 -0.2 84
2019-06-16 08:00:00 5.8 0 Calma 8 Sudoeste 0 920.5 -0.3 94
2019-06-16 07:00:00 4.3 5 Sudoeste 9 Sudoeste 0 920.5 -0.7 94
2019-06-16 06:00:00 3.3 3 Sudoeste 6 Sudoeste 0 920.6 -0.9 94
2019-06-16 05:00:00 4.4 0 Calma 5 Sudoeste 0 920.8 -1.1 94
2019-06-16 04:00:00 5.6 2 Sudoeste 4 Noroeste 0 921.2 -0.9 93
2019-06-16 03:00:00 7.2 0 Calma 6 Este 0 921.5 -0.7 88
2019-06-16 02:00:00 9.4 0 Calma 6 Oeste 0 921.9 -0.4 85
2019-06-16 01:00:00 10 2 Sudoeste 5 Oeste 0 922.1 0.7 78
2019-06-16 00:00:00 10 3 Nordeste 16 Este 0 922.2 0.8 76
2019-06-15 23:00:00 10.2 9 Nordeste 19 Nordeste 0 922.3 1 76
2019-06-15 22:00:00 10.5 5 Nordeste 14 Nordeste 0 921.4 0.7 76
2019-06-15 21:00:00 10.9 3 Nordeste 21 Nordeste 0 921.4 1.1 76
2019-06-15 20:00:00 11 9 Nordeste 28 Nordeste 0 921.3 1.3 76
2019-06-15 19:00:00 12.8 12 Nordeste 29 Nordeste 0 920.7 0.8 70
2019-06-15 18:00:00 15.4 14 Nordeste 32 Nordeste 0 920.3 0.4 61
2019-06-15 17:00:00 17.1 11 Nordeste 28 Norte 0 920 0.2 55
2019-06-15 16:00:00 17.2 11 Nordeste 24 Nordeste 0 919.9 0.1 51
2019-06-15 15:00:00 17.4 6 Nordeste 23 Nordeste 0 919.9 0 48
2019-06-15 14:00:00 16.4 11 Nordeste 23 Nordeste 0 919.8 0.1 48
2019-06-15 13:00:00 16.2 8 Nordeste 19 Este 0 919.8 -0.1 52
2019-06-15 12:00:00 14.7 6 Este 17 Este 0 919.9 0.5 56
2019-06-15 11:00:00 14.5 5 Nordeste 10 Este 0 919.7 1.1 61
2019-06-15 10:00:00 10.8 0 Calma 6 Sudeste 0 919.9 1.5 70
2019-06-15 09:00:00 9.9 0 Calma 6 Noroeste 0 919.4 1.5 83
2019-06-15 08:00:00 9 0 Calma 7 Este 0 918.6 0.9 92
2019-06-15 07:00:00 8.7 3 Este 10 Este 0 918.4 0.9 91
2019-06-15 06:00:00 8.8 3 Sudeste 8 Sudeste 0 917.9 0.5 92
2019-06-15 05:00:00 8.9 5 Sudeste 9 Sudeste 0 917.7 0.6 89
2019-06-15 04:00:00 9.2 5 Sudeste 12 Noroeste 0 917.5 0.1 86
2019-06-15 03:00:00 9.1 5 Sudeste 11 Sudeste 0 917.4 0.5 92
2019-06-15 02:00:00 9.4 4 Este 11 Noroeste 0 917.1 0.6 87
2019-06-15 01:00:00 9.8 5 Noroeste 15 Norte 0 917.4 1.7 69
2019-06-15 00:00:00 9.4 5 Oeste 12 Norte 0 916.9 2 78
2019-06-14 23:00:00 9.1 4 Noroeste 12 Este 0 916.5 2.1 78
2019-06-14 22:00:00 9.3 2 Nordeste 21 Noroeste 0 915.7 1.8 83
2019-06-14 21:00:00 10.6 4 Noroeste 16 Este 0 914.9 1.3 78
2019-06-14 20:00:00 10.4 8 Nordeste 27 Nordeste 0 914.4 1.1 88
2019-06-14 19:00:00 10.9 15 Este 24 Este 0 913.9 1 84
2019-06-14 18:00:00 11.8 13 Norte 25 Noroeste 0 913.6 1 78
2019-06-14 17:00:00 11.7 15 Noroeste 31 Nordeste 0 913.3 0.7 78
2019-06-14 16:00:00 13.4 14 Nordeste 30 Este 0 912.9 0.1 73
2019-06-14 15:00:00 15.3 15 Nordeste 29 Nordeste 0 912.6 -0.2 68
2019-06-14 14:00:00 14.8 16 Este 26 Este 0 912.6 -0.4 69
2019-06-14 13:00:00 13.7 9 Este 21 Este 0 912.8 0.3 66
2019-06-14 12:00:00 13.1 3 Nordeste 12 Noroeste 0 912.8 0.1 70
2019-06-14 11:00:00 10.8 0 Calma 7 Oeste 0 913 0.3 78
2019-06-14 10:00:00 9.7 4 Oeste 12 Oeste 0 912.5 -0.2 85
2019-06-14 09:00:00 8.3 9 Oeste 12 Oeste 0 912.7 0.1 93
2019-06-14 08:00:00 5.6 2 Sur 7 Sur 0 912.7 0.1 94
2019-06-14 07:00:00 4.3 4 Sudoeste 8 Oeste 0 912.7 -0.3 94
2019-06-14 06:00:00 5.2 4 Oeste 7 Oeste 0 912.6 -0.9 94
2019-06-14 05:00:00 5.8 3 Noroeste 8 Noroeste 0 912.6 -1.3 94
2019-06-14 04:00:00 6.8 3 Sudoeste 7 Oeste 0 913 -1.1 94
2019-06-14 03:00:00 8 0 Calma 5 Oeste 0 913.5 -0.7 93
2019-06-14 02:00:00 8.2 3 Este 15 Este 0 913.9 0.1 94
2019-06-14 01:00:00 8.4 8 Este 16 Nordeste 0 914.1 1 94
2019-06-14 00:00:00 8.6 8 Nordeste 17 Nordeste 0 914.2 1.4 94
2019-06-13 23:00:00 8.9 9 Nordeste 17 Este 0 913.8 1.7 92
2019-06-13 22:00:00 9.1 5 Nordeste 21 Este 0 913.1 1.5 91
2019-06-13 21:00:00 9.2 11 Nordeste 23 Nordeste 0 912.8 1.7 90
2019-06-13 20:00:00 11.4 10 Norte 28 Nordeste 0 912.1 1.5 77
2019-06-13 19:00:00 11.6 8 Norte 20 Este 0 911.6 1.1 77
2019-06-13 18:00:00 12.4 17 Nordeste 34 Nordeste 0 911.1 1 75
2019-06-13 17:00:00 13.2 22 Nordeste 34 Nordeste 0 910.6 0.1 73
2019-06-13 16:00:00 16.3 19 Este 33 Este 0 910.5 -0.5 61
2019-06-13 15:00:00 17.2 15 Nordeste 28 Nordeste 0 910.1 -1.3 56
2019-06-13 14:00:00 16.5 7 Este 18 Nordeste 0 910.5 -1.1 55
2019-06-13 13:00:00 14.8 8 Nordeste 20 Este 0 911 -0.7 61
2019-06-13 12:00:00 11.5 5 Este 17 Este 0 911.4 -0.3 66
2019-06-13 11:00:00 10.7 7 Nordeste 18 Este 0 911.6 -0.1 74
2019-06-13 10:00:00 9.5 10 Este 17 Este 0 911.7 0 77
2019-06-13 09:00:00 9 5 Nordeste 9 Este 0 911.7 0.1 78
2019-06-13 08:00:00 8.4 3 Nordeste 7 Este 0 911.7 0.1 84
2019-06-13 07:00:00 7.8 2 Este 6 Este 0 911.7 -0.1 87
2019-06-13 06:00:00 7.8 0 Calma 4 Sudeste 0 911.6 -0.9 84
2019-06-13 05:00:00 7.9 0 Calma 2 Oeste 0 911.6 -1.4 89
2019-06-13 04:00:00 8 0 Calma 3 Nordeste 0 911.8 -1.6 88
2019-06-13 03:00:00 7.6 0 Calma 4 Oeste 0 912.5 -1.3 90
2019-06-13 02:00:00 7.6 2 Sudoeste 8 Nordeste 0 913 -0.9 89
2019-06-13 01:00:00 7.6 4 Nordeste 9 Nordeste 0 913.4 -0.4 86
2019-06-13 00:00:00 8.1 5 Este 10 Este 0 913.8 0 84
2019-06-12 23:00:00 8.4 4 Sudeste 9 Nordeste 0 913.9 0.4 83
2019-06-12 22:00:00 8.5 5 Norte 18 Nordeste 0 913.8 0.6 85
2019-06-12 21:00:00 9 6 Norte 22 Norte 0 913.8 0.4 86
2019-06-12 20:00:00 9.8 8 Norte 28 Nordeste 0 913.5 0.2 83
2019-06-12 19:00:00 10.6 13 Nordeste 27 Norte 0 913.2 -0.3 74
2019-06-12 18:00:00 12.4 13 Nordeste 28 Este 0 913.4 -0.4 62
2019-06-12 17:00:00 12.8 9 Nordeste 26 Nordeste 0 913.3 -0.6 59
2019-06-12 16:00:00 14.4 10 Nordeste 34 Sudeste 0 913.5 -0.6 49
2019-06-12 15:00:00 14.5 8 Nordeste 22 Nordeste 0 913.8 -0.5 48
2019-06-12 14:00:00 14.2 12 Nordeste 24 Este 0 913.9 -0.4 44
2019-06-12 13:00:00 13.7 8 Nordeste 21 Nordeste 0 914.1 -0.3 44
2019-06-12 12:00:00 12 7 Sudeste 17 Sudeste 0 914.3 -0.3 41
2019-06-12 11:00:00 10.5 4 Sur 8 Sudeste 0 914.3 -0.2 44
2019-06-12 10:00:00 8.6 0 Calma 9 Norte 0 914.4 0.1 68
2019-06-12 09:00:00 6.1 0 Calma 5 Sur 0 914.6 0.4 78
2019-06-12 08:00:00 3 0 Calma 5 Sur 0 914.5 0.4 94
2019-06-12 07:00:00 1.2 4 Sudoeste 7 Sudoeste 0 914.3 -0.3 94
2019-06-12 06:00:00 0.5 5 Oeste 10 Noroeste 0 914.2 -0.8 94
2019-06-12 05:00:00 1.5 0 Calma 7 Sudoeste 0 914.1 -0.8 93
2019-06-12 04:00:00 1.7 4 Oeste 7 Oeste 0 914.6 -0.8 92
2019-06-12 03:00:00 3.2 0 Calma 9 Noroeste 0 915 -0.5 91
2019-06-12 02:00:00 2.7 4 Oeste 12 Noroeste 0 914.9 -1.1 89
2019-06-12 01:00:00 4.9 3 Sudeste 9 Sudeste 0 915.4 -0.4 86
2019-06-12 00:00:00 5.7 2 Sudeste 13 Sudoeste 0 915.5 -0.5 78
2019-06-11 23:00:00 6.5 5 Sur 29 Noroeste 0 916 0.2 78
2019-06-11 22:00:00 7.6 12 Noroeste 40 Norte 0 915.8 -0.2 78
2019-06-11 21:00:00 9.6 13 Noroeste 31 Norte 0 916 -0.2 66
2019-06-11 20:00:00 10.3 16 Norte 40 Noroeste 0 915.8 -0.3 63
2019-06-11 19:00:00 10.9 17 Noroeste 46 Norte 0 916 0.2 61
2019-06-11 18:00:00 10.6 29 Noroeste 43 Noroeste 0 916.2 0.3 64
2019-06-11 17:00:00 11.3 30 Noroeste 50 Noroeste 0 916.1 0 64
2019-06-11 16:00:00 10.1 32 Noroeste 47 Noroeste 0 915.8 -0.4 74
2019-06-11 15:00:00 10.2 29 Noroeste 44 Noroeste 0.1 915.9 -0.2 70
2019-06-11 14:00:00 10.8 27 Noroeste 50 Noroeste 0 916.1 0.1 66
2019-06-11 13:00:00 9.3 22 Noroeste 42 Noroeste 0 916.2 0.7 67
2019-06-11 12:00:00 9 23 Noroeste 39 Norte 0 916.1 0.8 71
2019-06-11 11:00:00 7.6 24 Noroeste 36 Norte 0 916 1.2 78
2019-06-11 10:00:00 6.5 15 Noroeste 36 Norte 0 915.5 0.8 75
2019-06-11 09:00:00 6 19 Noroeste 37 Noroeste 0 915.3 0.7 78
2019-06-11 08:00:00 5.8 20 Noroeste 32 Norte 0 914.8 0.3 83
2019-06-11 07:00:00 5.5 13 Oeste 29 Oeste 0 914.7 -0.1 83
2019-06-11 06:00:00 5.5 10 Oeste 26 Noroeste 0 914.6 -0.4 82
2019-06-11 05:00:00 6.8 23 Noroeste 38 Noroeste 0 914.5 -1.1 78
2019-06-11 04:00:00 7 24 Noroeste 36 Noroeste 0 914.8 -1.6 78
2019-06-11 03:00:00 6.4 11 Norte 30 Noroeste 0 915 -1.6 88
2019-06-11 02:00:00 6.6 15 Norte 28 Norte 0 915.6 -1.3 85
2019-06-11 01:00:00 7.2 11 Noroeste 28 Noroeste 0 916.4 -0.2 89
2019-06-11 00:00:00 7 10 Norte 23 Norte 0.2 916.6 -0.5 87
2019-06-10 23:00:00 6.8 12 Noroeste 25 Norte 0.6 916.9 -0.5 86
2019-06-10 22:00:00 6.8 11 Noroeste 31 Norte 0 916.6 -0.9 83
2019-06-10 21:00:00 6.9 9 Noroeste 20 Norte 0.6 917.1 -0.6 88
2019-06-10 20:00:00 7.9 7 Nordeste 12 Este 0.8 917.4 -0.7 93
2019-06-10 19:00:00 8.3 6 Nordeste 16 Nordeste 1 917.5 -0.7 91
2019-06-10 18:00:00 8.9 6 Nordeste 13 Nordeste 0.4 917.7 -0.7 90
2019-06-10 17:00:00 9.3 8 Nordeste 15 Norte 0 918.1 -0.8 83
2019-06-10 16:00:00 9.9 9 Nordeste 18 Nordeste 0 918.2 -0.8 76
2019-06-10 15:00:00 9.8 10 Nordeste 17 Este 0 918.4 -0.7 76
2019-06-10 14:00:00 10.3 9 Nordeste 22 Este 0 918.9 -0.1 73
2019-06-10 13:00:00 10.6 13 Nordeste 22 Este 0 919 -0.2 76
2019-06-10 12:00:00 9.7 15 Este 22 Este 0 919.1 -0.3 78
2019-06-10 11:00:00 10.5 9 Este 17 Este 0 919 -0.4 78
2019-06-10 10:00:00 9.2 8 Este 13 Este 0 919.2 0.2 79
2019-06-10 09:00:00 8.1 7 Este 11 Nordeste 0 919.4 0.3 90
2019-06-10 08:00:00 7.2 0 Calma 6 Este 0 919.4 0.1 90
2019-06-10 07:00:00 6.6 0 Calma 4 Noroeste 0 919 -0.7 93
2019-06-10 06:00:00 6.7 3 Nordeste 9 Nordeste 0 919.1 -1.3 94
2019-06-10 05:00:00 6.8 2 Nordeste 12 Nordeste 0 919.3 -1.2 94
2019-06-10 04:00:00 6.9 3 Norte 12 Nordeste 0 919.7 -0.8 94
2019-06-10 03:00:00 6.8 3 Nordeste 10 Nordeste 0 920.4 -0.7 93
2019-06-10 02:00:00 7.5 9 Nordeste 31 Noroeste 0 920.5 -0.4 90
2019-06-10 01:00:00 7.3 7 Noroeste 18 Noroeste 0 920.5 0.5 93
2019-06-10 00:00:00 8.2 6 Nordeste 14 Nordeste 0 921.1 1.5 93
2019-06-09 23:00:00 8.4 9 Noroeste 27 Noroeste 0 920.9 1.3 91
2019-06-09 22:00:00 8.5 16 Noroeste 25 Noroeste 1.4 920 1.1 90
2019-06-09 21:00:00 8.7 6 Norte 30 Norte 2.5 919.6 0.9 91
2019-06-09 20:00:00 9.7 15 Noroeste 27 Noroeste 0 919.6 1 82
2019-06-09 19:00:00 10.3 17 Noroeste 31 Noroeste 0 918.9 0.4 82
2019-06-09 18:00:00 10.4 18 Noroeste 29 Noroeste 0 918.7 0.2 85
2019-06-09 17:00:00 10.5 9 Norte 25 Noroeste 0 918.6 0.4 85
2019-06-09 16:00:00 10.6 13 Noroeste 22 Noroeste 0 918.5 0.1 86
2019-06-09 15:00:00 11 12 Noroeste 19 Noroeste 0 918.5 0.3 78
2019-06-09 14:00:00 12.2 5 Nordeste 18 Norte 0 918.2 0.3 74
2019-06-09 13:00:00 11.9 9 Nordeste 15 Este 0 918.4 0.4 76
2019-06-09 12:00:00 10.9 8 Nordeste 16 Este 0 918.2 0.3 78
2019-06-09 11:00:00 10.6 6 Nordeste 15 Nordeste 0 917.9 0.1 84
2019-06-09 10:00:00 9.5 5 Este 9 Este 0 918 0.3 90
2019-06-09 09:00:00 8.9 4 Este 8 Este 0 917.9 0.2 91
2019-06-09 08:00:00 8.9 0 Calma 7 Nordeste 0 917.8 -0.3 91
2019-06-09 07:00:00 8.5 2 Este 6 Este 0 917.7 -0.7 91
2019-06-09 06:00:00 8.7 5 Este 9 Este 0 917.7 -1.3 92
2019-06-09 05:00:00 9.2 5 Nordeste 8 Este 0 918.1 -1.6 91
2019-06-09 04:00:00 9.2 0 Calma 4 Oeste 0 918.4 -1.9 91
2019-06-09 03:00:00 9.1 0 Calma 8 Nordeste 0 919 -1.7 91
2019-06-09 02:00:00 9.1 5 Nordeste 10 Nordeste 0 919.7 -1.1 92
2019-06-09 01:00:00 9 5 Nordeste 14 Nordeste 0 920.3 0 91
2019-06-09 00:00:00 9.8 5 Noroeste 19 Noroeste 0 920.7 0.6 85
2019-06-08 23:00:00 9.8 9 Noroeste 16 Norte 0 920.8 0.6 86
2019-06-08 22:00:00 9.9 3 Nordeste 17 Noroeste 0 920.3 0.3 88
2019-06-08 21:00:00 10.3 3 Nordeste 18 Noroeste 0 920.1 0.2 88
2019-06-08 20:00:00 10.6 8 Norte 30 Noroeste 0 920.2 0.6 87
2019-06-08 19:00:00 11 18 Noroeste 25 Norte 0 920 0 84
2019-06-08 18:00:00 14.3 7 Nordeste 26 Nordeste 0 919.9 -0.5 66
2019-06-08 17:00:00 16 14 Nordeste 30 Este 0 919.6 -1.6 55
2019-06-08 16:00:00 17.5 14 Nordeste 27 Norte 0 920 -1.8 50
2019-06-08 15:00:00 16.8 10 Este 24 Este 0 920.4 -2.1 44
2019-06-08 14:00:00 15.7 11 Este 21 Nordeste 0 921.2 -1.7 48
2019-06-08 13:00:00 14 9 Nordeste 19 Nordeste 0 921.8 -1.4 56
2019-06-08 12:00:00 11.6 3 Nordeste 12 Nordeste 0 922.5 -0.5 62
2019-06-08 11:00:00 9.9 6 Este 15 Este 0 922.9 -0.2 67
2019-06-08 10:00:00 9 10 Este 17 Este 0 923.2 0.3 73
2019-06-08 09:00:00 8.3 8 Este 12 Este 0 923 0.5 82
2019-06-08 08:00:00 7.7 0 Calma 3 Noroeste 0 923.1 0.5 91
2019-06-08 07:00:00 6.9 0 Calma 3 Oeste 0 922.9 0.4 93
2019-06-08 06:00:00 6.5 3 Oeste 4 Oeste 0 922.5 0 93
2019-06-08 05:00:00 6.3 2 Sudoeste 4 Sur 0 922.6 0 93
2019-06-08 04:00:00 5.8 0 Calma 5 Este 0 922.5 0 93
2019-06-08 03:00:00 5.5 0 Calma 4 Noroeste 0 922.5 0.3 93
2019-06-08 02:00:00 5.5 0 Calma 5 Sudeste 0 922.6 0.9 93
2019-06-08 01:00:00 6.3 0 Calma 8 Noroeste 0 922.5 1.4 90
2019-06-08 00:00:00 7.1 4 Norte 14 Nordeste 0 922.2 1.5 85
2019-06-07 23:00:00 7.8 4 Nordeste 14 Nordeste 0 921.7 1.9 86
2019-06-07 22:00:00 7.8 6 Nordeste 17 Nordeste 0 921.1 1.7 84
2019-06-07 21:00:00 8.4 9 Nordeste 22 Nordeste 0 920.7 2.1 78
2019-06-07 20:00:00 9.3 12 Nordeste 27 Nordeste 0 919.8 2 76
2019-06-07 19:00:00 9.9 12 Nordeste 25 Nordeste 0 919.4 2.5 74
2019-06-07 18:00:00 10.6 13 Nordeste 28 Nordeste 0 918.6 2.6 70
2019-06-07 17:00:00 11.6 12 Nordeste 27 Nordeste 0 917.8 2.8 66
2019-06-07 16:00:00 11.4 13 Nordeste 26 Nordeste 0.1 916.9 2.8 63
2019-06-07 15:00:00 11.8 9 Nordeste 28 Nordeste 0.9 916 2.7 64
2019-06-07 14:00:00 13.3 12 Nordeste 34 Sudoeste 0 915 2.4 46
2019-06-07 13:00:00 14.2 18 Sur 39 Sur 0 914.1 2.9 43
2019-06-07 12:00:00 11.7 21 Sur 38 Sur 0 913.3 3.2 50
2019-06-07 11:00:00 10.6 19 Sur 38 Sur 0 912.6 3.3 56
2019-06-07 10:00:00 9.7 18 Sur 46 Sur 0 911.2 2.8 61
2019-06-07 09:00:00 8.3 25 Sudoeste 45 Sur 0 910.1 3.1 66
2019-06-07 08:00:00 7.2 21 Sudoeste 46 Sudeste 0 909.3 2.8 68
2019-06-07 07:00:00 6.6 12 Nordeste 36 Sudoeste 0 908.4 2.2 71
2019-06-07 06:00:00 7.4 23 Sudoeste 55 Sudoeste 0 907 1.7 69
2019-06-07 05:00:00 8 24 Sudoeste 50 Sudoeste 0 906.5 1.3 67
2019-06-07 04:00:00 8.2 21 Sudoeste 44 Sudoeste 0 906.2 2 72
2019-06-07 03:00:00 7.9 20 Sudoeste 42 Sudoeste 0 905.3 0.5 75
2019-06-07 02:00:00 8.7 19 Sur 41 Sudoeste 0.1 905.2 0.7 76
2019-06-07 01:00:00 8.8 21 Sudoeste 42 Sur 0 904.2 -0.1 74
2019-06-07 00:00:00 9.1 19 Sudoeste 58 Sudoeste 2.4 904.8 -0.1 74
2019-06-06 23:00:00 11 28 Sudoeste 66 Sur 1.7 904.5 1 78
2019-06-06 22:00:00 12 31 Sudoeste 68 Sudoeste 2.5 904.3 1.6 78
2019-06-06 21:00:00 11.8 32 Sudoeste 67 Sudoeste 2.1 904.9 1.5 77
2019-06-06 20:00:00 16.7 27 Sudoeste 78 Sudoeste 0 903.5 -1.7 33
2019-06-06 19:00:00 17.8 35 Sudoeste 94 Sur 0 902.7 -3.8 28
2019-06-06 18:00:00 18.3 26 Sur 77 Sur 0 903.4 -4.2 28
2019-06-06 17:00:00 17.9 33 Sur 69 Sur 0 905.2 -3.6 31
2019-06-06 16:00:00 16.7 33 Sur 68 Sur 0 906.5 -2.9 34
2019-06-06 15:00:00 15.1 28 Sur 54 Sur 0 907.6 -2.9 36
2019-06-06 14:00:00 14.6 29 Sur 55 Sur 0 908.8 -2.8 38
2019-06-06 13:00:00 14.1 23 Sur 43 Sur 0 909.4 -2.6 42
2019-06-06 12:00:00 11.7 7 Sur 34 Sur 0 910.5 -1.7 52
2019-06-06 11:00:00 10 13 Sudoeste 31 Sudoeste 0 911.6 -1.2 61
2019-06-06 10:00:00 9.3 10 Sur 21 Sur 0 912 -1.4 68
2019-06-06 09:00:00 8.4 11 Sudeste 18 Sudeste 0 912.2 -1.4 76
2019-06-06 08:00:00 8.1 8 Este 22 Este 0 912.8 -0.9 75
2019-06-06 07:00:00 4.5 0 Calma 6 Sur 0 913.4 -0.6 94
2019-06-06 06:00:00 5.9 2 Sur 4 Sudoeste 0 913.6 -0.8 94
2019-06-06 05:00:00 5.8 0 Calma 5 Sudoeste 0 913.7 -0.9 94
2019-06-06 04:00:00 6 3 Sur 5 Sur 0 914 -1 94
2019-06-06 03:00:00 6.1 0 Calma 5 Oeste 0 914.4 -0.9 94
2019-06-06 02:00:00 6.3 0 Calma 5 Oeste 0 914.6 -0.5 94
2019-06-06 01:00:00 6.4 2 Oeste 4 Este 0.5 915 0.3 93
2019-06-06 00:00:00 6.4 0 Calma 6 Sudeste 0.1 915.3 0.7 93
2019-06-05 23:00:00 6.4 6 Este 10 Sudeste 0.3 915.1 1.3 91
2019-06-05 22:00:00 6.5 3 Nordeste 9 Este 0.1 914.7 0.7 91
2019-06-05 21:00:00 7.2 4 Sudeste 13 Nordeste 1 914.6 0.5 88
2019-06-05 20:00:00 8.1 7 Nordeste 18 Nordeste 0.2 913.8 -0.2 87
2019-06-05 19:00:00 7.7 3 Oeste 18 Noroeste 0.9 914 0.3 82
2019-06-05 18:00:00 8.4 8 Noroeste 17 Nordeste 1.1 914.1 0.7 85
2019-06-05 17:00:00 8.6 3 Sur 26 Noroeste 0.7 914 1.3 77
2019-06-05 16:00:00 8.7 10 Norte 39 Noroeste 1 913.7 1.5 84
2019-06-05 15:00:00 9.8 14 Noroeste 35 Noroeste 0 913.4 1.7 74
2019-06-05 14:00:00 10.6 18 Noroeste 40 Norte 0 912.7 1.3 66
2019-06-05 13:00:00 11.7 14 Norte 31 Norte 0 912.2 0.9 64
2019-06-05 12:00:00 12 16 Norte 29 Noroeste 0.1 911.7 0.9 67
2019-06-05 11:00:00 9.8 18 Noroeste 27 Noroeste 0 911.4 0.9 72
2019-06-05 10:00:00 9.9 9 Norte 28 Norte 0 911.3 0.7 76
2019-06-05 09:00:00 8 14 Norte 32 Noroeste 0 910.8 0.1 83
2019-06-05 08:00:00 7.8 16 Noroeste 27 Norte 0 910.5 -0.1 87
2019-06-05 07:00:00 7.4 5 Norte 17 Noroeste 0.5 910.6 -0.7 89
2019-06-05 06:00:00 7.6 9 Norte 24 Noroeste 0.7 910.7 -0.6 90
2019-06-05 05:00:00 7.5 7 Norte 21 Noroeste 1.3 910.6 -1.1 91
2019-06-05 04:00:00 7.9 12 Noroeste 28 Noroeste 2.2 911.3 -0.6 89
2019-06-05 03:00:00 7.9 10 Noroeste 21 Noroeste 0.1 911.3 -1.1 86
2019-06-05 02:00:00 8.5 11 Noroeste 25 Noroeste 0 911.7 -0.5 84
2019-06-05 01:00:00 8.4 5 Noroeste 23 Noroeste 0 911.9 -0.1 85
2019-06-05 00:00:00 8.5 0 Calma 18 Noroeste 0 912.4 0.7 86
2019-06-04 23:00:00 8.5 5 Oeste 11 Oeste 2.5 912.2 0.3 91
2019-06-04 22:00:00 9.5 0 Calma 15 Noroeste 0.4 912 0.3 87
2019-06-04 21:00:00 10.3 7 Noroeste 21 Norte 0 911.7 0.3 78
2019-06-04 20:00:00 10.6 13 Norte 23 Norte 0 911.9 0.8 77
2019-06-04 19:00:00 11.1 9 Noroeste 24 Nordeste 0 911.7 1.4 78
2019-06-04 18:00:00 10.8 10 Nordeste 28 Nordeste 0 911.4 1.1 84
2019-06-04 17:00:00 12.3 16 Nordeste 32 Nordeste 0 911.1 0.3 78
2019-06-04 16:00:00 17.3 14 Nordeste 30 Nordeste 0 910.3 -0.7 61
2019-06-04 15:00:00 21 15 Sur 33 Sur 0 910.3 -0.8 37
2019-06-04 14:00:00 20.5 13 Sudoeste 35 Sur 0 910.8 -0.1 43
2019-06-04 13:00:00 18.1 14 Sur 31 Sur 0 911 0.5 49
2019-06-04 12:00:00 17.2 16 Sur 39 Sur 0 911.1 0.8 52
2019-06-04 11:00:00 15.7 17 Sur 36 Sur 0 910.9 0.8 57
2019-06-04 10:00:00 15 13 Sur 33 Sur 0 910.5 0.5 66
2019-06-04 09:00:00 13.8 14 Sur 32 Sur 0 910.3 0 74
2019-06-04 08:00:00 13.2 10 Sur 31 Sur 0 910.1 -0.4 70
2019-06-04 07:00:00 13.5 13 Sur 29 Sur 0 910 -0.8 65
2019-06-04 06:00:00 14.2 13 Sur 32 Sur 0 910.3 -1.3 64
2019-06-04 05:00:00 13.3 10 Sur 23 Sur 0 910.5 -2.2 90
2019-06-04 04:00:00 8.6 4 Oeste 9 Oeste 0 910.8 -2.8 94
2019-06-04 03:00:00 9.6 4 Noroeste 8 Oeste 0 911.6 -2.6 94
2019-06-04 02:00:00 11.7 3 Sudoeste 7 Sudoeste 0 912.7 -2.1 94
2019-06-04 01:00:00 11.5 0 Calma 5 Oeste 0 913.6 -1 94
2019-06-04 00:00:00 11.3 0 Calma 3 Este 0 914.2 -0.3 93
2019-06-03 23:00:00 14.1 0 Calma 9 Este 0 914.8 0.6 89
2019-06-03 22:00:00 15.5 6 Este 13 Nordeste 0 914.6 0.4 86
2019-06-03 21:00:00 16.9 6 Nordeste 23 Este 0 914.5 0 78
2019-06-03 20:00:00 18.2 9 Nordeste 22 Este 0 914.2 -0.8 73
2019-06-03 19:00:00 19.5 14 Nordeste 27 Este 0 914.2 -1.1 66
2019-06-03 18:00:00 21.2 15 Este 28 Este 0 914.5 -1.3 57
2019-06-03 17:00:00 21.9 15 Nordeste 30 Nordeste 0 915 -1.2 52
2019-06-03 16:00:00 23.1 16 Nordeste 27 Este 0 915.3 -1.8 48
2019-06-03 15:00:00 22.8 15 Nordeste 29 Nordeste 0 915.8 -1.6 47
2019-06-03 14:00:00 22.1 14 Este 26 Este 0 916.2 -0.9 46
2019-06-03 13:00:00 21.3 13 Nordeste 26 Este 0 917.1 -0.8 47
2019-06-03 12:00:00 20.4 4 Norte 13 Nordeste 0 917.4 -0.8 48
2019-06-03 11:00:00 18.1 6 Nordeste 13 Norte 0 917.1 -0.6 51
2019-06-03 10:00:00 15.9 0 Calma 6 Sur 0 917.9 0.3 59
2019-06-03 09:00:00 12.4 2 Sur 8 Noroeste 0 918.2 1.4 78
2019-06-03 08:00:00 10.1 0 Calma 6 Noroeste 0 917.7 0.1 87
2019-06-03 07:00:00 9.7 5 Sur 13 Oeste 0 917.6 -0.3 86
2019-06-03 06:00:00 8.1 5 Noroeste 11 Noroeste 0 916.8 -1.5 94
2019-06-03 05:00:00 7.8 4 Sudeste 7 Sudeste 0 917.6 -1 94
2019-06-03 04:00:00 7.9 0 Calma 6 Oeste 0 917.9 -1 93
2019-06-03 03:00:00 8.7 2 Oeste 5 Sur 0 918.3 -0.7 91
2019-06-03 02:00:00 9.3 3 Sudoeste 6 Oeste 0 918.6 -0.3 92
2019-06-03 01:00:00 9.9 5 Oeste 7 Oeste 0 918.9 0.6 92
2019-06-03 00:00:00 11.3 2 Sudoeste 6 Oeste 0 919 0.6 89
2019-06-02 23:00:00 11.8 3 Sudoeste 9 Este 0 918.9 0.9 83
2019-06-02 22:00:00 14.7 5 Este 11 Este 0 918.3 0.5 74
2019-06-02 21:00:00 16.6 5 Sudeste 12 Este 0 918.4 0.5 61
2019-06-02 20:00:00 20.1 8 Este 14 Nordeste 0 918 0.5 43
2019-06-02 19:00:00 21.6 8 Nordeste 18 Nordeste 0 917.8 0.3 41
2019-06-02 18:00:00 22.8 8 Nordeste 23 Nordeste 0 917.9 0.2 42
2019-06-02 17:00:00 23.5 13 Nordeste 27 Nordeste 0 917.5 -0.6 42
2019-06-02 16:00:00 24.3 18 Este 29 Este 0 917.5 -1.1 40
2019-06-02 15:00:00 25.7 10 Este 25 Sur 0 917.7 -0.7 34
2019-06-02 14:00:00 27.1 12 Sur 27 Sudoeste 0 918.1 -0.6 30
2019-06-02 13:00:00 25.8 11 Sur 28 Sur 0 918.6 -0.1 32
2019-06-02 12:00:00 24.3 16 Sur 27 Sudeste 0 918.4 -0.3 36
2019-06-02 11:00:00 23.1 14 Sur 24 Sudeste 0 918.7 -0.1 37
2019-06-02 10:00:00 22 5 Este 12 Este 0 918.7 0 43
2019-06-02 09:00:00 16.5 3 Noroeste 6 Noroeste 0 918.7 -0.1 63
2019-06-02 08:00:00 11.7 2 Sudoeste 8 Sudoeste 0 918.8 -0.2 84
2019-06-02 07:00:00 8.1 6 Oeste 8 Noroeste 0 918.7 -0.5 91
2019-06-02 06:00:00 9.5 0 Calma 8 Sudoeste 0 918.8 -0.9 90
2019-06-02 05:00:00 10.2 0 Calma 8 Sudoeste 0 919 -0.9 86
2019-06-02 04:00:00 9.8 4 Noroeste 8 Oeste 0 919.2 -0.9 86
2019-06-02 03:00:00 10.4 3 Oeste 5 Oeste 0 919.7 -0.3 82
2019-06-02 02:00:00 10.6 4 Oeste 6 Sudeste 0 919.9 0.1 78
2019-06-02 01:00:00 12.6 0 Calma 6 Sudoeste 0 920.1 0.6 70
2019-06-02 00:00:00 15.6 2 Sudoeste 8 Oeste 0 920 0.9 59
2019-06-01 23:00:00 16.7 4 Oeste 7 Oeste 0 919.8 0.8 63
2019-06-01 22:00:00 20.5 0 Calma 10 Sudeste 0 919.5 0.7 61
2019-06-01 21:00:00 23 5 Este 12 Nordeste 0 919.1 0.3 40
2019-06-01 20:00:00 27 6 Norte 17 Norte 0 919 0.1 31
2019-06-01 19:00:00 28.2 8 Norte 26 Norte 0 918.8 -0.5 30
2019-06-01 18:00:00 29 12 Norte 27 Nordeste 0 918.8 -0.7 32
2019-06-01 17:00:00 28.9 13 Norte 24 Nordeste 0 918.9 -1.4 30
2019-06-01 16:00:00 30.2 8 Sudeste 28 Sur 0 919.3 -1.3 21
2019-06-01 15:00:00 29.3 11 Sudeste 27 Sur 0 919.5 -1.4 23
2019-06-01 14:00:00 28.9 12 Sur 30 Sudeste 0 920.3 -0.8 23
2019-06-01 13:00:00 28.5 11 Sur 25 Sudeste 0 920.6 -0.8 26
2019-06-01 12:00:00 25.7 5 Nordeste 12 Este 0 920.9 -0.6 38
2019-06-01 11:00:00 22.8 3 Nordeste 9 Este 0 921.1 -0.6 43
2019-06-01 10:00:00 20.2 2 Este 6 Este 0 921.4 -0.1 49
2019-06-01 09:00:00 15.5 0 Calma 4 Noroeste 0 921.5 0.3 64
2019-06-01 08:00:00 11.4 0 Calma 8 Sudoeste 0 921.7 0.4 78
2019-06-01 07:00:00 7.6 0 Calma 7 Sudoeste 0 921.5 0 86
2019-06-01 06:00:00 8.8 2 Sudoeste 8 Sudoeste 0 921.2 -0.5 83
2019-06-01 05:00:00 9 0 Calma 5 Sudoeste 0 921.3 -0.9 75
2019-06-01 04:00:00 11.5 0 Calma 10 Sudoeste 0 921.5 -1 66
2019-06-01 03:00:00 12.5 6 Sudoeste 14 Sudoeste 0 921.7 -0.9 57
2019-06-01 02:00:00 12.7 5 Sudoeste 10 Sudoeste 0 922.2 -0.2 56
2019-06-01 01:00:00 13 9 Sudoeste 12 Sudoeste 0 922.5 0.5 53
2019-06-01 00:00:00 13.9 5 Sudoeste 10 Oeste 0 922.6 0.8 51
2019-05-31 23:00:00 14.8 4 Oeste 9 Oeste 0 922.4 0.5 48
2019-05-31 22:00:00 18.5 4 Oeste 8 Sur 0 922 -0.3 41
2019-05-31 21:00:00 23.2 3 Sudeste 15 Nordeste 0 921.8 -0.5 31
2019-05-31 20:00:00 25.4 6 Nordeste 17 Nordeste 0 921.9 -0.6 26
2019-05-31 19:00:00 26.1 10 Nordeste 23 Este 0 922.3 -0.5 26
2019-05-31 18:00:00 26.7 10 Nordeste 26 Este 0 922.3 -1 29
2019-05-31 17:00:00 27.6 13 Nordeste 27 Nordeste 0 922.5 -1 26
2019-05-31 16:00:00 27.6 15 Este 25 Este 0 922.8 -1.1 22
2019-05-31 15:00:00 27 9 Este 22 Este 0 923.3 -0.5 18
2019-05-31 14:00:00 26.4 4 Nordeste 13 Nordeste 0 923.5 -0.6 22
2019-05-31 13:00:00 25.2 4 Norte 15 Nordeste 0 923.9 -0.4 26
2019-05-31 12:00:00 23.6 4 Nordeste 12 Este 0 923.8 -0.7 38
2019-05-31 11:00:00 21.1 4 Sudeste 9 Sur 0 924.1 -0.4 43
2019-05-31 10:00:00 17.3 2 Sudoeste 4 Sur 0 924.3 -0.1 49
2019-05-31 09:00:00 14.3 0 Calma 5 Norte 0 924.5 0.1 64
2019-05-31 08:00:00 8.6 2 Oeste 9 Sur 0 924.5 -0.2 85
2019-05-31 07:00:00 5.7 4 Sudoeste 10 Sudoeste 0 924.4 -0.6 84
2019-05-31 06:00:00 5.3 4 Oeste 9 Sudoeste 0 924.4 -0.9 87
2019-05-31 05:00:00 7.9 7 Sudoeste 10 Sudoeste 0 924.7 -0.9 82
2019-05-31 04:00:00 7.7 5 Sudoeste 8 Oeste 0 925 -1.1 88
2019-05-31 03:00:00 8.8 5 Sur 8 Sudoeste 0 925.3 -0.8 84
2019-05-31 02:00:00 9.6 4 Sudoeste 8 Oeste 0 925.6 -0.3 78
2019-05-31 01:00:00 10.6 6 Sudoeste 10 Sudoeste 0 926.1 0.9 75
2019-05-31 00:00:00 11.2 3 Oeste 8 Oeste 0 926.1 1 85
2019-05-30 23:00:00 14.4 0 Calma 7 Sur 0 925.9 1 72
2019-05-30 22:00:00 16.8 4 Este 23 Nordeste 0 925.2 0 57
2019-05-30 21:00:00 19.8 12 Nordeste 24 Nordeste 0 925.1 0 47
2019-05-30 20:00:00 21.3 12 Nordeste 26 Nordeste 0 924.9 -0.2 43
2019-05-30 19:00:00 22.6 15 Nordeste 29 Este 0 925.2 -0.1 43
2019-05-30 18:00:00 23.4 16 Nordeste 32 Este 0 925.1 -0.6 41
2019-05-30 17:00:00 23.9 15 Nordeste 27 Nordeste 0 925.1 -0.7 38
2019-05-30 16:00:00 24.2 10 Nordeste 23 Este 0 925.3 -0.5 34
2019-05-30 15:00:00 22.6 12 Este 24 Este 0 925.7 -0.4 33
2019-05-30 14:00:00 22.1 12 Este 21 Este 0 925.8 -0.3 30
2019-05-30 13:00:00 21.8 9 Este 18 Este 0 925.8 -0.6 36
2019-05-30 12:00:00 20.5 4 Nordeste 12 Nordeste 0 926.1 -0.3 42
2019-05-30 11:00:00 17.5 4 Este 11 Sudeste 0 926.1 0 50
2019-05-30 10:00:00 14.5 4 Sudeste 9 Este 0 926.4 0.6 63
2019-05-30 09:00:00 10.3 2 Sur 6 Sur 0 926.4 0.7 82
2019-05-30 08:00:00 6.5 3 Norte 7 Sudoeste 0 926.1 0.3 92
2019-05-30 07:00:00 3.4 4 Oeste 8 Oeste 0 925.8 -0.1 94
2019-05-30 06:00:00 3.5 6 Oeste 9 Oeste 0 925.7 -0.3 94
2019-05-30 05:00:00 2.6 4 Sudoeste 8 Oeste 0 925.8 -0.6 94
2019-05-30 04:00:00 4.1 2 Noroeste 9 Oeste 0 925.9 -0.7 94
2019-05-30 03:00:00 4.9 3 Sudoeste 10 Sur 0 926 -0.5 94
2019-05-30 02:00:00 4.9 2 Oeste 7 Oeste 0 926.4 0 94
2019-05-30 01:00:00 5 4 Noroeste 5 Noroeste 0 926.6 0.7 93
2019-05-30 00:00:00 8.5 0 Calma 8 Noroeste 0 926.5 1 93
2019-05-29 23:00:00 8.6 4 Oeste 16 Este 0 926.4 1.2 90
2019-05-29 22:00:00 11.9 7 Este 16 Este 0 925.9 0.8 82
2019-05-29 21:00:00 13.9 10 Este 22 Sudeste 0 925.5 0.5 74
2019-05-29 20:00:00 16.6 6 Nordeste 26 Norte 0 925.2 0.1 61
2019-05-29 19:00:00 16.7 15 Nordeste 33 Nordeste 0 925.1 -0.2 61
2019-05-29 18:00:00 17 18 Nordeste 31 Nordeste 0 925 -0.3 59
2019-05-29 17:00:00 18.4 11 Nordeste 25 Nordeste 0 925.1 -0.2 54
2019-05-29 16:00:00 17.1 15 Nordeste 31 Este 0 925.3 0 59
2019-05-29 15:00:00 16.5 16 Este 27 Este 0 925.3 0.3 58
2019-05-29 14:00:00 16.4 15 Nordeste 28 Nordeste 0 925.3 0.1 58
2019-05-29 13:00:00 15.9 13 Nordeste 28 Noroeste 0 925.3 0.3 57
2019-05-29 12:00:00 14.4 12 Noroeste 27 Noroeste 0 925 0.6 58
2019-05-29 11:00:00 12.4 13 Noroeste 33 Noroeste 0 925.2 1 64
2019-05-29 10:00:00 10.7 16 Noroeste 29 Noroeste 0 925 1.1 68
2019-05-29 09:00:00 10 15 Noroeste 31 Noroeste 0 924.4 0.7 71
2019-05-29 08:00:00 9.4 5 Noroeste 17 Noroeste 0 924.2 0.6 74
2019-05-29 07:00:00 8.3 7 Oeste 15 Oeste 0 923.9 0.2 76
2019-05-29 06:00:00 8.5 4 Noroeste 19 Noroeste 0 923.7 -0.2 74
2019-05-29 05:00:00 8.6 13 Noroeste 21 Noroeste 0 923.6 -0.2 75
2019-05-29 04:00:00 6.5 8 Noroeste 14 Oeste 0 923.7 -0.3 78
2019-05-29 03:00:00 7.4 7 Noroeste 22 Noroeste 0 923.9 0.2 78
2019-05-29 02:00:00 7.7 14 Noroeste 24 Noroeste 0 923.8 0.1 84
2019-05-29 01:00:00 7.6 17 Noroeste 28 Noroeste 0 924 1.1 84
2019-05-29 00:00:00 8.5 18 Noroeste 31 Noroeste 0 923.7 1.2 78
2019-05-28 23:00:00 8.5 20 Noroeste 30 Noroeste 0 923.7 1.4 78
2019-05-28 22:00:00 8.5 23 Noroeste 31 Noroeste 0 922.9 1.1 76
2019-05-28 21:00:00 9.1 22 Noroeste 33 Noroeste 0 922.5 0.7 71
2019-05-28 20:00:00 10 20 Noroeste 35 Noroeste 0 922.3 0.8 66
2019-05-28 19:00:00 11.5 26 Noroeste 41 Noroeste 0 921.8 0.7 61
2019-05-28 18:00:00 12.3 23 Noroeste 38 Noroeste 0 921.8 0.7 62
2019-05-28 17:00:00 12 26 Noroeste 43 Noroeste 0 921.5 1.1 62
2019-05-28 16:00:00 13.5 26 Noroeste 46 Noroeste 0 921.1 0.6 59
2019-05-28 15:00:00 13.2 26 Noroeste 40 Norte 0 921.1 1 58
2019-05-28 14:00:00 13.6 20 Norte 42 Noroeste 0 920.4 0.3 54
2019-05-28 13:00:00 11.8 20 Noroeste 41 Noroeste 0 920.5 1 58
2019-05-28 12:00:00 11.5 27 Noroeste 46 Noroeste 0 920.1 0.6 57
2019-05-28 11:00:00 9.9 33 Noroeste 50 Noroeste 0 920.1 0.8 62
2019-05-28 10:00:00 9.9 17 Noroeste 33 Noroeste 0 919.5 0.6 61
2019-05-28 09:00:00 9.3 19 Noroeste 34 Noroeste 0 919.5 1.1 65
2019-05-28 08:00:00 8.1 3 Norte 27 Noroeste 0 919.3 1 73
2019-05-28 07:00:00 7.3 14 Noroeste 33 Noroeste 0 918.9 0.3 76
2019-05-28 06:00:00 7.7 11 Noroeste 31 Noroeste 0 918.4 -0.1 76
2019-05-28 05:00:00 7.9 12 Noroeste 30 Norte 0 918.3 -0.4 78
2019-05-28 04:00:00 8.1 13 Noroeste 24 Norte 0 918.6 -0.3 78
2019-05-28 03:00:00 8.3 8 Norte 27 Norte 0 918.5 -0.6 82
2019-05-28 02:00:00 8.7 16 Noroeste 30 Noroeste 0 918.7 -0.5 78
2019-05-28 01:00:00 8.8 13 Noroeste 36 Noroeste 0 918.9 0.6 77
2019-05-28 00:00:00 9.2 19 Norte 33 Noroeste 0 919.1 1.1 78